sensor_id;sensor_type;location;lat;lon;timestamp;temperature;humidity
4081;DHT22;2055;50.074;8.436;2023-04-15T00:00:15;6.60;99.90
4081;DHT22;2055;50.074;8.436;2023-04-15T00:02:42;6.50;99.90
4081;DHT22;2055;50.074;8.436;2023-04-15T00:05:08;6.50;99.90
4081;DHT22;2055;50.074;8.436;2023-04-15T00:07:35;6.60;99.90
4081;DHT22;2055;50.074;8.436;2023-04-15T00:10:00;6.70;99.90
4081;DHT22;2055;50.074;8.436;2023-04-15T00:12:27;6.80;99.90
4081;DHT22;2055;50.074;8.436;2023-04-15T00:14:52;6.80;99.90
4081;DHT22;2055;50.074;8.436;2023-04-15T00:17:19;6.80;99.90
4081;DHT22;2055;50.074;8.436;2023-04-15T00:19:44;6.90;99.90
4081;DHT22;2055;50.074;8.436;2023-04-15T00:22:10;7.20;99.90
4081;DHT22;2055;50.074;8.436;2023-04-15T00:24:37;7.00;99.90
4081;DHT22;2055;50.074;8.436;2023-04-15T00:27:02;7.00;99.90
4081;DHT22;2055;50.074;8.436;2023-04-15T00:29:29;7.00;99.90
4081;DHT22;2055;50.074;8.436;2023-04-15T00:31:55;6.90;99.90
4081;DHT22;2055;50.074;8.436;2023-04-15T00:34:21;6.80;99.90
4081;DHT22;2055;50.074;8.436;2023-04-15T00:36:47;6.60;99.90
4081;DHT22;2055;50.074;8.436;2023-04-15T00:39:13;6.50;99.90
4081;DHT22;2055;50.074;8.436;2023-04-15T00:41:38;6.50;99.90
4081;DHT22;2055;50.074;8.436;2023-04-15T00:44:07;6.40;99.90
4081;DHT22;2055;50.074;8.436;2023-04-15T00:46:35;6.30;99.90
4081;DHT22;2055;50.074;8.436;2023-04-15T00:49:03;6.10;99.90
4081;DHT22;2055;50.074;8.436;2023-04-15T00:51:29;6.00;99.90
4081;DHT22;2055;50.074;8.436;2023-04-15T00:53:58;6.10;99.90
4081;DHT22;2055;50.074;8.436;2023-04-15T00:56:24;6.20;99.90
4081;DHT22;2055;50.074;8.436;2023-04-15T00:58:50;6.40;99.90
4081;DHT22;2055;50.074;8.436;2023-04-15T01:01:20;6.50;99.90
4081;DHT22;2055;50.074;8.436;2023-04-15T01:03:47;6.50;99.90
4081;DHT22;2055;50.074;8.436;2023-04-15T01:06:13;6.50;99.90
4081;DHT22;2055;50.074;8.436;2023-04-15T01:08:39;6.60;99.90
4081;DHT22;2055;50.074;8.436;2023-04-15T01:11:06;6.60;99.90
4081;DHT22;2055;50.074;8.436;2023-04-15T01:13:33;6.50;99.90
4081;DHT22;2055;50.074;8.436;2023-04-15T01:15:58;6.50;99.90
4081;DHT22;2055;50.074;8.436;2023-04-15T01:18:25;6.50;99.90
4081;DHT22;2055;50.074;8.436;2023-04-15T01:20:51;6.40;99.90
4081;DHT22;2055;50.074;8.436;2023-04-15T01:23:17;6.30;99.90
4081;DHT22;2055;50.074;8.436;2023-04-15T01:25:43;6.30;99.90
4081;DHT22;2055;50.074;8.436;2023-04-15T01:28:09;6.20;99.90
4081;DHT22;2055;50.074;8.436;2023-04-15T01:30:35;6.20;99.90
4081;DHT22;2055;50.074;8.436;2023-04-15T01:33:01;6.30;99.90
4081;DHT22;2055;50.074;8.436;2023-04-15T01:35:27;6.20;99.90
4081;DHT22;2055;50.074;8.436;2023-04-15T01:37:53;6.30;99.90
4081;DHT22;2055;50.074;8.436;2023-04-15T01:40:19;6.30;99.90
4081;DHT22;2055;50.074;8.436;2023-04-15T01:42:45;6.30;99.90
4081;DHT22;2055;50.074;8.436;2023-04-15T01:45:11;6.30;99.90
4081;DHT22;2055;50.074;8.436;2023-04-15T01:47:37;6.40;99.90
4081;DHT22;2055;50.074;8.436;2023-04-15T01:50:03;6.40;99.90
4081;DHT22;2055;50.074;8.436;2023-04-15T01:52:28;6.30;99.90
4081;DHT22;2055;50.074;8.436;2023-04-15T01:54:54;6.20;99.90
4081;DHT22;2055;50.074;8.436;2023-04-15T01:57:20;6.00;99.90
4081;DHT22;2055;50.074;8.436;2023-04-15T01:59:46;5.90;99.90
4081;DHT22;2055;50.074;8.436;2023-04-15T02:02:11;5.80;99.90
4081;DHT22;2055;50.074;8.436;2023-04-15T02:04:37;5.70;99.90
4081;DHT22;2055;50.074;8.436;2023-04-15T02:07:02;5.70;99.90
4081;DHT22;2055;50.074;8.436;2023-04-15T02:09:28;5.70;99.90
4081;DHT22;2055;50.074;8.436;2023-04-15T02:11:54;5.90;99.90
4081;DHT22;2055;50.074;8.436;2023-04-15T02:14:19;5.90;99.90
4081;DHT22;2055;50.074;8.436;2023-04-15T02:16:45;6.00;99.90
4081;DHT22;2055;50.074;8.436;2023-04-15T02:19:10;6.10;99.90
4081;DHT22;2055;50.074;8.436;2023-04-15T02:21:37;6.20;99.90
4081;DHT22;2055;50.074;8.436;2023-04-15T02:24:02;6.20;99.90
4081;DHT22;2055;50.074;8.436;2023-04-15T02:26:28;6.10;99.90
4081;DHT22;2055;50.074;8.436;2023-04-15T02:28:56;6.00;99.90
4081;DHT22;2055;50.074;8.436;2023-04-15T02:31:22;6.10;99.90
4081;DHT22;2055;50.074;8.436;2023-04-15T02:33:47;6.00;99.90
4081;DHT22;2055;50.074;8.436;2023-04-15T02:36:14;5.90;99.90
4081;DHT22;2055;50.074;8.436;2023-04-15T02:38:40;5.80;99.90
4081;DHT22;2055;50.074;8.436;2023-04-15T02:41:11;5.70;99.90
4081;DHT22;2055;50.074;8.436;2023-04-15T02:43:36;5.80;99.90
4081;DHT22;2055;50.074;8.436;2023-04-15T02:46:04;5.70;99.90
4081;DHT22;2055;50.074;8.436;2023-04-15T02:48:30;5.90;99.90
4081;DHT22;2055;50.074;8.436;2023-04-15T02:51:18;5.70;99.90
4081;DHT22;2055;50.074;8.436;2023-04-15T02:53:44;5.60;99.90
4081;DHT22;2055;50.074;8.436;2023-04-15T02:56:10;5.60;99.90
4081;DHT22;2055;50.074;8.436;2023-04-15T02:58:37;5.80;99.90
4081;DHT22;2055;50.074;8.436;2023-04-15T03:01:03;5.80;99.90
4081;DHT22;2055;50.074;8.436;2023-04-15T03:03:29;5.90;99.90
4081;DHT22;2055;50.074;8.436;2023-04-15T03:05:55;3.70;99.90
4081;DHT22;2055;50.074;8.436;2023-04-15T03:08:20;5.80;99.90
4081;DHT22;2055;50.074;8.436;2023-04-15T03:10:46;5.80;99.90
4081;DHT22;2055;50.074;8.436;2023-04-15T03:13:12;5.80;99.90
4081;DHT22;2055;50.074;8.436;2023-04-15T03:15:37;5.80;99.90
4081;DHT22;2055;50.074;8.436;2023-04-15T03:18:03;5.70;99.90
4081;DHT22;2055;50.074;8.436;2023-04-15T03:20:28;5.60;99.90
4081;DHT22;2055;50.074;8.436;2023-04-15T03:22:54;5.60;99.90
4081;DHT22;2055;50.074;8.436;2023-04-15T03:25:20;5.60;99.90
4081;DHT22;2055;50.074;8.436;2023-04-15T03:27:46;5.70;99.90
4081;DHT22;2055;50.074;8.436;2023-04-15T03:30:11;5.70;99.90
4081;DHT22;2055;50.074;8.436;2023-04-15T03:32:37;5.50;99.90
4081;DHT22;2055;50.074;8.436;2023-04-15T03:35:03;5.40;99.90
4081;DHT22;2055;50.074;8.436;2023-04-15T03:37:29;5.30;99.90
4081;DHT22;2055;50.074;8.436;2023-04-15T03:39:54;5.20;99.90
4081;DHT22;2055;50.074;8.436;2023-04-15T03:42:20;5.10;99.90
4081;DHT22;2055;50.074;8.436;2023-04-15T03:44:46;5.20;99.90
4081;DHT22;2055;50.074;8.436;2023-04-15T03:47:11;5.20;99.90
4081;DHT22;2055;50.074;8.436;2023-04-15T03:49:37;5.00;99.90
4081;DHT22;2055;50.074;8.436;2023-04-15T03:52:02;5.00;99.90
4081;DHT22;2055;50.074;8.436;2023-04-15T03:54:28;4.80;99.90
4081;DHT22;2055;50.074;8.436;2023-04-15T03:56:54;4.90;99.90
4081;DHT22;2055;50.074;8.436;2023-04-15T03:59:20;4.80;99.90
4081;DHT22;2055;50.074;8.436;2023-04-15T04:01:45;4.70;99.90
4081;DHT22;2055;50.074;8.436;2023-04-15T04:04:11;4.80;99.90
4081;DHT22;2055;50.074;8.436;2023-04-15T04:06:36;4.90;99.90
4081;DHT22;2055;50.074;8.436;2023-04-15T04:09:02;5.00;99.90
4081;DHT22;2055;50.074;8.436;2023-04-15T04:11:27;5.30;99.90
4081;DHT22;2055;50.074;8.436;2023-04-15T04:13:53;5.30;99.90
4081;DHT22;2055;50.074;8.436;2023-04-15T04:16:19;5.40;99.90
4081;DHT22;2055;50.074;8.436;2023-04-15T04:18:44;5.70;99.90
4081;DHT22;2055;50.074;8.436;2023-04-15T04:21:10;5.80;99.90
4081;DHT22;2055;50.074;8.436;2023-04-15T04:23:35;5.80;99.90
4081;DHT22;2055;50.074;8.436;2023-04-15T04:26:01;5.60;99.90
4081;DHT22;2055;50.074;8.436;2023-04-15T04:28:27;5.50;99.90
4081;DHT22;2055;50.074;8.436;2023-04-15T04:30:52;5.30;99.90
4081;DHT22;2055;50.074;8.436;2023-04-15T04:33:18;5.20;99.90
4081;DHT22;2055;50.074;8.436;2023-04-15T04:35:43;5.20;99.90
4081;DHT22;2055;50.074;8.436;2023-04-15T04:38:09;5.20;99.90
4081;DHT22;2055;50.074;8.436;2023-04-15T04:40:35;5.10;99.90
4081;DHT22;2055;50.074;8.436;2023-04-15T04:43:01;5.00;99.90
4081;DHT22;2055;50.074;8.436;2023-04-15T04:45:26;5.00;99.90
4081;DHT22;2055;50.074;8.436;2023-04-15T04:47:52;5.00;99.90
4081;DHT22;2055;50.074;8.436;2023-04-15T04:50:17;5.00;99.90
4081;DHT22;2055;50.074;8.436;2023-04-15T04:52:43;5.10;99.90
4081;DHT22;2055;50.074;8.436;2023-04-15T04:55:08;5.00;99.90
4081;DHT22;2055;50.074;8.436;2023-04-15T04:57:34;6.60;99.90
4081;DHT22;2055;50.074;8.436;2023-04-15T05:00:01;5.00;99.90
4081;DHT22;2055;50.074;8.436;2023-04-15T05:02:27;5.00;99.90
4081;DHT22;2055;50.074;8.436;2023-04-15T05:04:53;5.00;99.90
4081;DHT22;2055;50.074;8.436;2023-04-15T05:07:19;5.00;99.90
4081;DHT22;2055;50.074;8.436;2023-04-15T05:09:45;5.30;99.90
4081;DHT22;2055;50.074;8.436;2023-04-15T05:12:11;5.10;99.90
4081;DHT22;2055;50.074;8.436;2023-04-15T05:14:40;5.40;99.90
4081;DHT22;2055;50.074;8.436;2023-04-15T05:17:06;5.10;99.90
4081;DHT22;2055;50.074;8.436;2023-04-15T05:19:31;5.20;99.90
4081;DHT22;2055;50.074;8.436;2023-04-15T05:21:57;5.20;99.90
4081;DHT22;2055;50.074;8.436;2023-04-15T05:24:22;5.30;99.90
4081;DHT22;2055;50.074;8.436;2023-04-15T05:26:48;5.40;99.90
4081;DHT22;2055;50.074;8.436;2023-04-15T05:29:13;5.50;99.90
4081;DHT22;2055;50.074;8.436;2023-04-15T05:31:39;5.50;99.90
4081;DHT22;2055;50.074;8.436;2023-04-15T05:34:05;5.70;99.90
4081;DHT22;2055;50.074;8.436;2023-04-15T05:36:31;5.80;99.90
4081;DHT22;2055;50.074;8.436;2023-04-15T05:38:57;5.90;99.90
4081;DHT22;2055;50.074;8.436;2023-04-15T05:41:23;6.00;99.90
4081;DHT22;2055;50.074;8.436;2023-04-15T05:43:48;6.00;99.90
4081;DHT22;2055;50.074;8.436;2023-04-15T05:46:14;6.00;99.90
4081;DHT22;2055;50.074;8.436;2023-04-15T05:48:39;6.00;99.90
4081;DHT22;2055;50.074;8.436;2023-04-15T05:51:05;6.00;99.90
4081;DHT22;2055;50.074;8.436;2023-04-15T05:53:30;6.00;99.90
4081;DHT22;2055;50.074;8.436;2023-04-15T05:55:56;6.00;99.90
4081;DHT22;2055;50.074;8.436;2023-04-15T05:58:22;6.10;99.90
4081;DHT22;2055;50.074;8.436;2023-04-15T06:00:47;6.10;99.90
4081;DHT22;2055;50.074;8.436;2023-04-15T06:03:13;6.20;99.90
4081;DHT22;2055;50.074;8.436;2023-04-15T06:05:38;6.20;99.90
4081;DHT22;2055;50.074;8.436;2023-04-15T06:08:05;6.30;99.90
4081;DHT22;2055;50.074;8.436;2023-04-15T06:10:30;6.50;99.90
4081;DHT22;2055;50.074;8.436;2023-04-15T06:13:03;6.60;99.90
4081;DHT22;2055;50.074;8.436;2023-04-15T06:15:29;6.60;99.90
4081;DHT22;2055;50.074;8.436;2023-04-15T06:17:55;6.70;99.90
4081;DHT22;2055;50.074;8.436;2023-04-15T06:20:21;6.90;99.90
4081;DHT22;2055;50.074;8.436;2023-04-15T06:22:46;7.00;99.90
4081;DHT22;2055;50.074;8.436;2023-04-15T06:25:12;7.20;99.90
4081;DHT22;2055;50.074;8.436;2023-04-15T06:27:38;7.30;99.90
4081;DHT22;2055;50.074;8.436;2023-04-15T06:30:04;7.40;99.90
4081;DHT22;2055;50.074;8.436;2023-04-15T06:32:31;7.50;99.90
4081;DHT22;2055;50.074;8.436;2023-04-15T06:34:57;7.60;99.90
4081;DHT22;2055;50.074;8.436;2023-04-15T06:37:22;7.70;99.90
4081;DHT22;2055;50.074;8.436;2023-04-15T06:39:48;7.80;99.90
4081;DHT22;2055;50.074;8.436;2023-04-15T06:42:14;7.80;99.90
4081;DHT22;2055;50.074;8.436;2023-04-15T06:44:40;7.90;99.90
4081;DHT22;2055;50.074;8.436;2023-04-15T06:47:06;8.10;99.90
4081;DHT22;2055;50.074;8.436;2023-04-15T06:49:31;8.10;99.90
4081;DHT22;2055;50.074;8.436;2023-04-15T06:51:58;8.10;99.90
4081;DHT22;2055;50.074;8.436;2023-04-15T06:54:25;8.20;99.90
4081;DHT22;2055;50.074;8.436;2023-04-15T06:56:51;8.30;99.90
4081;DHT22;2055;50.074;8.436;2023-04-15T06:59:16;8.30;99.90
4081;DHT22;2055;50.074;8.436;2023-04-15T07:01:42;8.20;99.90
4081;DHT22;2055;50.074;8.436;2023-04-15T07:04:08;8.20;99.90
4081;DHT22;2055;50.074;8.436;2023-04-15T07:06:33;8.20;99.90
4081;DHT22;2055;50.074;8.436;2023-04-15T07:09:00;8.30;99.90
4081;DHT22;2055;50.074;8.436;2023-04-15T07:11:26;8.30;99.90
4081;DHT22;2055;50.074;8.436;2023-04-15T07:13:51;8.20;99.90
4081;DHT22;2055;50.074;8.436;2023-04-15T07:16:17;8.20;99.90
4081;DHT22;2055;50.074;8.436;2023-04-15T07:18:42;8.20;99.90
4081;DHT22;2055;50.074;8.436;2023-04-15T07:21:08;8.30;99.90
4081;DHT22;2055;50.074;8.436;2023-04-15T07:23:34;8.40;99.90
4081;DHT22;2055;50.074;8.436;2023-04-15T07:25:59;8.60;99.90
4081;DHT22;2055;50.074;8.436;2023-04-15T07:28:25;8.70;99.90
4081;DHT22;2055;50.074;8.436;2023-04-15T07:30:51;9.00;99.90
4081;DHT22;2055;50.074;8.436;2023-04-15T07:33:17;9.00;99.90
4081;DHT22;2055;50.074;8.436;2023-04-15T07:35:42;9.00;99.90
4081;DHT22;2055;50.074;8.436;2023-04-15T07:38:08;9.20;99.90
4081;DHT22;2055;50.074;8.436;2023-04-15T07:40:33;9.30;99.90
4081;DHT22;2055;50.074;8.436;2023-04-15T07:42:59;9.40;99.90
4081;DHT22;2055;50.074;8.436;2023-04-15T07:45:24;9.50;99.90
4081;DHT22;2055;50.074;8.436;2023-04-15T07:47:50;9.80;99.90
4081;DHT22;2055;50.074;8.436;2023-04-15T07:50:17;10.00;99.90
4081;DHT22;2055;50.074;8.436;2023-04-15T07:52:44;10.70;99.90
4081;DHT22;2055;50.074;8.436;2023-04-15T07:55:10;10.60;99.90
4081;DHT22;2055;50.074;8.436;2023-04-15T07:57:36;10.80;99.90
4081;DHT22;2055;50.074;8.436;2023-04-15T08:00:03;10.90;99.90
4081;DHT22;2055;50.074;8.436;2023-04-15T08:02:31;10.90;99.90
4081;DHT22;2055;50.074;8.436;2023-04-15T08:04:57;10.90;99.90
4081;DHT22;2055;50.074;8.436;2023-04-15T08:07:24;11.00;99.90
4081;DHT22;2055;50.074;8.436;2023-04-15T08:09:49;11.40;99.90
4081;DHT22;2055;50.074;8.436;2023-04-15T08:12:15;11.30;99.90
4081;DHT22;2055;50.074;8.436;2023-04-15T08:14:41;11.40;99.90
4081;DHT22;2055;50.074;8.436;2023-04-15T08:17:06;11.60;99.90
4081;DHT22;2055;50.074;8.436;2023-04-15T08:19:32;11.50;99.90
4081;DHT22;2055;50.074;8.436;2023-04-15T08:21:58;11.50;99.90
4081;DHT22;2055;50.074;8.436;2023-04-15T08:24:23;11.40;99.90
4081;DHT22;2055;50.074;8.436;2023-04-15T08:26:51;11.50;99.90
4081;DHT22;2055;50.074;8.436;2023-04-15T08:29:16;11.60;99.90
4081;DHT22;2055;50.074;8.436;2023-04-15T08:31:42;11.80;99.90
4081;DHT22;2055;50.074;8.436;2023-04-15T08:34:07;12.10;99.90
4081;DHT22;2055;50.074;8.436;2023-04-15T08:36:33;12.30;99.90
4081;DHT22;2055;50.074;8.436;2023-04-15T08:38:59;12.50;99.90
4081;DHT22;2055;50.074;8.436;2023-04-15T08:41:36;12.90;99.90
4081;DHT22;2055;50.074;8.436;2023-04-15T08:44:04;13.00;99.90
4081;DHT22;2055;50.074;8.436;2023-04-15T08:46:31;13.30;99.90
4081;DHT22;2055;50.074;8.436;2023-04-15T08:48:59;13.50;99.90
4081;DHT22;2055;50.074;8.436;2023-04-15T08:51:27;13.60;99.90
4081;DHT22;2055;50.074;8.436;2023-04-15T08:53:53;13.30;99.90
4081;DHT22;2055;50.074;8.436;2023-04-15T08:56:24;13.70;99.90
4081;DHT22;2055;50.074;8.436;2023-04-15T08:58:53;13.70;99.90
4081;DHT22;2055;50.074;8.436;2023-04-15T09:01:19;14.00;99.90
4081;DHT22;2055;50.074;8.436;2023-04-15T09:03:47;14.10;99.90
4081;DHT22;2055;50.074;8.436;2023-04-15T09:06:16;13.90;99.90
4081;DHT22;2055;50.074;8.436;2023-04-15T09:08:41;13.90;99.90
4081;DHT22;2055;50.074;8.436;2023-04-15T09:11:07;14.10;99.90
4081;DHT22;2055;50.074;8.436;2023-04-15T09:13:32;14.00;99.90
4081;DHT22;2055;50.074;8.436;2023-04-15T09:16:01;14.10;99.90
4081;DHT22;2055;50.074;8.436;2023-04-15T09:18:30;14.10;99.90
4081;DHT22;2055;50.074;8.436;2023-04-15T09:21:03;14.10;99.90
4081;DHT22;2055;50.074;8.436;2023-04-15T09:23:30;14.10;99.90
4081;DHT22;2055;50.074;8.436;2023-04-15T09:25:57;14.00;99.90
4081;DHT22;2055;50.074;8.436;2023-04-15T09:28:25;14.20;99.90
4081;DHT22;2055;50.074;8.436;2023-04-15T09:31:00;14.40;99.90
4081;DHT22;2055;50.074;8.436;2023-04-15T09:33:28;14.70;99.90
4081;DHT22;2055;50.074;8.436;2023-04-15T09:36:01;14.80;99.90
4081;DHT22;2055;50.074;8.436;2023-04-15T09:38:28;15.30;99.90
4081;DHT22;2055;50.074;8.436;2023-04-15T09:40:54;14.80;99.90
4081;DHT22;2055;50.074;8.436;2023-04-15T09:43:19;14.60;99.90
4081;DHT22;2055;50.074;8.436;2023-04-15T09:45:50;14.40;99.90
4081;DHT22;2055;50.074;8.436;2023-04-15T09:48:24;14.50;99.90
4081;DHT22;2055;50.074;8.436;2023-04-15T09:50:56;14.60;99.90
4081;DHT22;2055;50.074;8.436;2023-04-15T09:53:23;14.40;99.90
4081;DHT22;2055;50.074;8.436;2023-04-15T09:55:51;15.00;99.90
4081;DHT22;2055;50.074;8.436;2023-04-15T09:58:21;15.20;99.90
4081;DHT22;2055;50.074;8.436;2023-04-15T10:00:48;15.50;99.90
4081;DHT22;2055;50.074;8.436;2023-04-15T10:03:22;15.80;99.90
4081;DHT22;2055;50.074;8.436;2023-04-15T10:05:50;15.40;99.10
4081;DHT22;2055;50.074;8.436;2023-04-15T10:08:24;15.10;99.90
4081;DHT22;2055;50.074;8.436;2023-04-15T10:10:52;14.60;98.20
4081;DHT22;2055;50.074;8.436;2023-04-15T10:13:19;14.40;97.50
4081;DHT22;2055;50.074;8.436;2023-04-15T10:15:59;14.10;97.30
4081;DHT22;2055;50.074;8.436;2023-04-15T10:18:26;13.60;97.30
4081;DHT22;2055;50.074;8.436;2023-04-15T10:20:53;14.00;98.40
4081;DHT22;2055;50.074;8.436;2023-04-15T10:23:21;14.10;97.70
4081;DHT22;2055;50.074;8.436;2023-04-15T10:25:51;14.00;96.60
4081;DHT22;2055;50.074;8.436;2023-04-15T10:28:19;13.90;97.00
4081;DHT22;2055;50.074;8.436;2023-04-15T10:30:45;13.80;98.40
4081;DHT22;2055;50.074;8.436;2023-04-15T10:33:12;14.10;99.90
4081;DHT22;2055;50.074;8.436;2023-04-15T10:35:38;14.20;99.10
4081;DHT22;2055;50.074;8.436;2023-04-15T10:38:33;14.20;99.90
4081;DHT22;2055;50.074;8.436;2023-04-15T10:43:46;14.00;99.90
4081;DHT22;2055;50.074;8.436;2023-04-15T10:46:12;14.00;99.90
4081;DHT22;2055;50.074;8.436;2023-04-15T10:48:38;13.90;99.90
4081;DHT22;2055;50.074;8.436;2023-04-15T10:51:04;14.00;99.90
4081;DHT22;2055;50.074;8.436;2023-04-15T10:53:30;13.80;99.90
4081;DHT22;2055;50.074;8.436;2023-04-15T10:55:56;13.90;99.90
4081;DHT22;2055;50.074;8.436;2023-04-15T10:58:23;14.60;99.90
4081;DHT22;2055;50.074;8.436;2023-04-15T11:00:51;14.70;99.90
4081;DHT22;2055;50.074;8.436;2023-04-15T11:03:36;15.00;99.90
4081;DHT22;2055;50.074;8.436;2023-04-15T11:06:03;15.40;99.90
4081;DHT22;2055;50.074;8.436;2023-04-15T11:11:19;15.20;99.90
4081;DHT22;2055;50.074;8.436;2023-04-15T11:13:49;14.90;99.90
4081;DHT22;2055;50.074;8.436;2023-04-15T11:16:15;14.80;99.90
4081;DHT22;2055;50.074;8.436;2023-04-15T11:18:41;15.10;99.90
4081;DHT22;2055;50.074;8.436;2023-04-15T11:21:07;14.90;99.90
4081;DHT22;2055;50.074;8.436;2023-04-15T11:26:00;14.40;99.90
4081;DHT22;2055;50.074;8.436;2023-04-15T11:28:28;14.20;99.90
4081;DHT22;2055;50.074;8.436;2023-04-15T11:30:54;13.90;99.90
4081;DHT22;2055;50.074;8.436;2023-04-15T11:33:21;13.80;99.90
4081;DHT22;2055;50.074;8.436;2023-04-15T11:35:48;14.00;99.90
4081;DHT22;2055;50.074;8.436;2023-04-15T11:38:14;14.40;99.90
4081;DHT22;2055;50.074;8.436;2023-04-15T11:40:42;14.80;99.90
4081;DHT22;2055;50.074;8.436;2023-04-15T11:43:14;15.10;99.90
4081;DHT22;2055;50.074;8.436;2023-04-15T11:45:58;15.50;99.90
4081;DHT22;2055;50.074;8.436;2023-04-15T11:48:25;15.30;99.90
4081;DHT22;2055;50.074;8.436;2023-04-15T11:51:07;15.40;99.90
4081;DHT22;2055;50.074;8.436;2023-04-15T11:53:41;15.10;99.90
4081;DHT22;2055;50.074;8.436;2023-04-15T11:56:08;14.60;99.90
4081;DHT22;2055;50.074;8.436;2023-04-15T11:58:36;14.30;99.90
4081;DHT22;2055;50.074;8.436;2023-04-15T12:01:02;14.00;99.90
4081;DHT22;2055;50.074;8.436;2023-04-15T12:03:29;13.70;99.90
4081;DHT22;2055;50.074;8.436;2023-04-15T12:06:05;13.40;99.90
4081;DHT22;2055;50.074;8.436;2023-04-15T12:11:38;12.50;99.90
4081;DHT22;2055;50.074;8.436;2023-04-15T12:14:04;12.30;99.90
4081;DHT22;2055;50.074;8.436;2023-04-15T12:16:32;12.20;99.90
4081;DHT22;2055;50.074;8.436;2023-04-15T12:18:58;12.00;99.90
4081;DHT22;2055;50.074;8.436;2023-04-15T12:21:32;11.90;99.90
4081;DHT22;2055;50.074;8.436;2023-04-15T12:24:01;12.20;99.90
4081;DHT22;2055;50.074;8.436;2023-04-15T12:26:29;12.30;99.90
4081;DHT22;2055;50.074;8.436;2023-04-15T12:29:00;12.30;99.90
4081;DHT22;2055;50.074;8.436;2023-04-15T12:31:26;12.10;99.90
4081;DHT22;2055;50.074;8.436;2023-04-15T12:33:54;12.00;99.90
4081;DHT22;2055;50.074;8.436;2023-04-15T12:36:20;12.20;99.90
4081;DHT22;2055;50.074;8.436;2023-04-15T12:38:45;12.40;99.90
4081;DHT22;2055;50.074;8.436;2023-04-15T12:41:11;12.70;99.90
4081;DHT22;2055;50.074;8.436;2023-04-15T12:43:36;12.60;99.90
4081;DHT22;2055;50.074;8.436;2023-04-15T12:46:02;12.80;99.90
4081;DHT22;2055;50.074;8.436;2023-04-15T12:48:29;12.80;99.90
4081;DHT22;2055;50.074;8.436;2023-04-15T12:50:55;12.60;99.90
4081;DHT22;2055;50.074;8.436;2023-04-15T12:53:20;12.60;99.90
4081;DHT22;2055;50.074;8.436;2023-04-15T12:55:46;12.50;99.90
4081;DHT22;2055;50.074;8.436;2023-04-15T12:58:11;12.30;99.90
4081;DHT22;2055;50.074;8.436;2023-04-15T13:00:38;12.40;99.90
4081;DHT22;2055;50.074;8.436;2023-04-15T13:03:03;12.30;99.90
4081;DHT22;2055;50.074;8.436;2023-04-15T13:05:29;12.20;99.90
4081;DHT22;2055;50.074;8.436;2023-04-15T13:07:54;12.20;99.90
4081;DHT22;2055;50.074;8.436;2023-04-15T13:10:20;12.00;99.90
4081;DHT22;2055;50.074;8.436;2023-04-15T13:12:48;12.00;99.90
4081;DHT22;2055;50.074;8.436;2023-04-15T13:15:14;11.70;99.90
4081;DHT22;2055;50.074;8.436;2023-04-15T13:17:43;11.70;99.90
4081;DHT22;2055;50.074;8.436;2023-04-15T13:20:09;11.60;99.90
4081;DHT22;2055;50.074;8.436;2023-04-15T13:22:35;11.50;99.90
4081;DHT22;2055;50.074;8.436;2023-04-15T13:25:00;11.40;99.90
4081;DHT22;2055;50.074;8.436;2023-04-15T13:27:26;11.50;99.90
4081;DHT22;2055;50.074;8.436;2023-04-15T13:29:52;11.40;99.90
4081;DHT22;2055;50.074;8.436;2023-04-15T13:32:18;11.30;99.90
4081;DHT22;2055;50.074;8.436;2023-04-15T13:34:43;11.30;99.90
4081;DHT22;2055;50.074;8.436;2023-04-15T13:37:09;11.30;99.90
4081;DHT22;2055;50.074;8.436;2023-04-15T13:39:34;11.30;99.90
4081;DHT22;2055;50.074;8.436;2023-04-15T13:42:00;11.30;99.90
4081;DHT22;2055;50.074;8.436;2023-04-15T13:44:27;11.30;99.90
4081;DHT22;2055;50.074;8.436;2023-04-15T13:46:52;11.40;99.90
4081;DHT22;2055;50.074;8.436;2023-04-15T13:49:18;11.30;99.90
4081;DHT22;2055;50.074;8.436;2023-04-15T13:51:43;11.00;99.90
4081;DHT22;2055;50.074;8.436;2023-04-15T13:54:09;11.10;99.90
4081;DHT22;2055;50.074;8.436;2023-04-15T13:56:34;11.10;99.90
4081;DHT22;2055;50.074;8.436;2023-04-15T13:59:00;11.10;99.90
4081;DHT22;2055;50.074;8.436;2023-04-15T14:01:27;10.90;99.90
4081;DHT22;2055;50.074;8.436;2023-04-15T14:03:52;10.80;99.90
4081;DHT22;2055;50.074;8.436;2023-04-15T14:06:18;10.70;99.90
4081;DHT22;2055;50.074;8.436;2023-04-15T14:08:44;10.70;99.90
4081;DHT22;2055;50.074;8.436;2023-04-15T14:11:09;10.60;99.90
4081;DHT22;2055;50.074;8.436;2023-04-15T14:13:35;10.40;99.90
4081;DHT22;2055;50.074;8.436;2023-04-15T14:16:01;10.40;99.90
4081;DHT22;2055;50.074;8.436;2023-04-15T14:18:26;10.30;99.90
4081;DHT22;2055;50.074;8.436;2023-04-15T14:20:52;10.20;99.90
4081;DHT22;2055;50.074;8.436;2023-04-15T14:23:18;10.30;99.90
4081;DHT22;2055;50.074;8.436;2023-04-15T14:25:44;10.20;99.90
4081;DHT22;2055;50.074;8.436;2023-04-15T14:28:09;10.20;99.90
4081;DHT22;2055;50.074;8.436;2023-04-15T14:30:35;10.30;99.90
4081;DHT22;2055;50.074;8.436;2023-04-15T14:33:00;10.30;99.90
4081;DHT22;2055;50.074;8.436;2023-04-15T14:35:26;10.20;99.90
4081;DHT22;2055;50.074;8.436;2023-04-15T14:37:53;10.20;99.90
4081;DHT22;2055;50.074;8.436;2023-04-15T14:40:18;10.10;99.90
4081;DHT22;2055;50.074;8.436;2023-04-15T14:42:45;10.10;99.90
4081;DHT22;2055;50.074;8.436;2023-04-15T14:45:10;10.10;99.90
4081;DHT22;2055;50.074;8.436;2023-04-15T14:47:36;10.00;99.90
4081;DHT22;2055;50.074;8.436;2023-04-15T14:50:02;9.90;99.90
4081;DHT22;2055;50.074;8.436;2023-04-15T14:52:29;9.90;99.90
4081;DHT22;2055;50.074;8.436;2023-04-15T14:54:54;9.80;99.90
4081;DHT22;2055;50.074;8.436;2023-04-15T14:57:20;9.80;99.90
4081;DHT22;2055;50.074;8.436;2023-04-15T14:59:45;9.80;99.90
4081;DHT22;2055;50.074;8.436;2023-04-15T15:02:12;9.90;99.90
4081;DHT22;2055;50.074;8.436;2023-04-15T15:04:38;9.80;99.90
4081;DHT22;2055;50.074;8.436;2023-04-15T15:07:04;9.80;99.90
4081;DHT22;2055;50.074;8.436;2023-04-15T15:09:30;9.80;99.90
4081;DHT22;2055;50.074;8.436;2023-04-15T15:11:56;9.80;99.90
4081;DHT22;2055;50.074;8.436;2023-04-15T15:14:22;9.80;99.90
4081;DHT22;2055;50.074;8.436;2023-04-15T15:16:47;9.80;99.90
4081;DHT22;2055;50.074;8.436;2023-04-15T15:19:13;9.80;99.90
4081;DHT22;2055;50.074;8.436;2023-04-15T15:21:38;9.80;99.90
4081;DHT22;2055;50.074;8.436;2023-04-15T15:24:04;9.80;99.90
4081;DHT22;2055;50.074;8.436;2023-04-15T15:26:30;9.70;99.90
4081;DHT22;2055;50.074;8.436;2023-04-15T15:28:56;9.80;99.90
4081;DHT22;2055;50.074;8.436;2023-04-15T15:31:21;9.70;99.90
4081;DHT22;2055;50.074;8.436;2023-04-15T15:33:47;9.70;99.90
4081;DHT22;2055;50.074;8.436;2023-04-15T15:36:13;9.70;99.90
4081;DHT22;2055;50.074;8.436;2023-04-15T15:38:40;9.70;99.90
4081;DHT22;2055;50.074;8.436;2023-04-15T15:41:06;9.80;99.90
4081;DHT22;2055;50.074;8.436;2023-04-15T15:43:31;9.80;99.90
4081;DHT22;2055;50.074;8.436;2023-04-15T15:45:57;9.70;99.90
4081;DHT22;2055;50.074;8.436;2023-04-15T15:48:23;9.60;99.90
4081;DHT22;2055;50.074;8.436;2023-04-15T15:50:48;9.60;99.90
4081;DHT22;2055;50.074;8.436;2023-04-15T15:53:14;9.50;99.90
4081;DHT22;2055;50.074;8.436;2023-04-15T15:55:46;9.50;99.90
4081;DHT22;2055;50.074;8.436;2023-04-15T15:58:12;9.40;99.90
4081;DHT22;2055;50.074;8.436;2023-04-15T16:00:38;9.70;99.90
4081;DHT22;2055;50.074;8.436;2023-04-15T16:03:04;9.40;99.90
4081;DHT22;2055;50.074;8.436;2023-04-15T16:05:29;9.40;99.90
4081;DHT22;2055;50.074;8.436;2023-04-15T16:07:55;9.40;99.90
4081;DHT22;2055;50.074;8.436;2023-04-15T16:10:21;9.40;99.90
4081;DHT22;2055;50.074;8.436;2023-04-15T16:12:46;9.30;99.90
4081;DHT22;2055;50.074;8.436;2023-04-15T16:15:12;9.30;99.90
4081;DHT22;2055;50.074;8.436;2023-04-15T16:17:38;9.40;99.90